Time,TemperatureF,DewpointF,PressureIn,WindDirection,WindDirectionDegrees,WindSpeedMPH,WindSpeedGustMPH,Humidity,HourlyPrecipIn,Conditions,Clouds,dailyrainin,SolarRadiationWatts/m^2,SoftwareType,DateUTC
2013-07-05 00:00:00,72.2,62.3,29.74,South,180,0.0,3.0,71,0.00,-RA,,0.00,0.0,WeatherDisplay:10.37,2013-07-05 05:00:00,
2013-07-05 00:10:00,72.2,62.3,29.74,South,180,0.0,3.0,71,0.00,-RA,,0.00,0.0,WeatherDisplay:10.37,2013-07-05 05:10:00,
2013-07-05 00:20:00,72.1,62.2,29.74,South,180,0.0,2.0,71,0.00,-RA,,0.00,0.0,WeatherDisplay:10.37,2013-07-05 05:20:00,
2013-07-05 00:30:00,72.0,62.1,29.74,South,180,1.0,4.0,71,0.00,-RA,,0.00,0.0,WeatherDisplay:10.37,2013-07-05 05:30:00,
2013-07-05 00:40:00,72.0,61.7,29.73,South,180,0.0,0.0,70,0.00,-RA,,0.00,0.0,WeatherDisplay:10.37,2013-07-05 05:40:00,
2013-07-05 00:50:00,71.8,61.5,29.73,South,180,0.0,2.0,70,0.00,-RA,,0.00,0.0,WeatherDisplay:10.37,2013-07-05 05:50:00,
2013-07-05 01:00:00,71.6,61.3,29.73,South,180,0.0,1.0,70,0.00,-RA,,0.00,0.0,WeatherDisplay:10.37,2013-07-05 06:00:00,
2013-07-05 01:10:00,71.4,61.1,29.73,South,184,0.0,5.0,70,0.00,-RA,,0.00,0.0,WeatherDisplay:10.37,2013-07-05 06:10:00,
2013-07-05 01:20:00,71.4,61.1,29.72,SSW,198,0.0,4.0,70,0.00,-RA,,0.00,0.0,WeatherDisplay:10.37,2013-07-05 06:20:00,
2013-07-05 01:30:00,71.6,61.7,29.72,South,189,0.0,4.0,71,0.00,-RA,,0.00,0.0,WeatherDisplay:10.37,2013-07-05 06:30:00,
2013-07-05 01:40:00,71.8,61.5,29.72,South,190,0.0,5.0,70,0.00,-RA,,0.00,0.0,WeatherDisplay:10.37,2013-07-05 06:40:00,
2013-07-05 01:50:00,72.0,61.3,29.72,SSW,193,1.0,5.0,69,0.00,-RA,,0.00,0.0,WeatherDisplay:10.37,2013-07-05 06:50:00,
2013-07-05 02:00:00,72.2,61.5,29.73,South,182,1.0,5.0,69,0.00,-RA,,0.00,0.0,WeatherDisplay:10.37,2013-07-05 07:00:00,
2013-07-05 02:10:00,72.3,61.1,29.73,SSW,200,0.0,6.0,68,0.00,-RA,,0.00,0.0,WeatherDisplay:10.37,2013-07-05 07:10:00,
2013-07-05 02:20:00,72.4,61.7,29.73,SSW,200,0.0,4.0,69,0.00,-RA,,0.00,0.0,WeatherDisplay:10.37,2013-07-05 07:20:00,
2013-07-05 02:30:00,72.4,61.7,29.73,SSW,195,0.0,5.0,69,0.00,-RA,,0.00,0.0,WeatherDisplay:10.37,2013-07-05 07:30:00,
2013-07-05 02:40:00,72.2,61.5,29.73,South,190,2.0,6.0,69,0.00,-RA,,0.00,0.0,WeatherDisplay:10.37,2013-07-05 07:40:00,
2013-07-05 02:50:00,72.0,61.7,29.73,SSW,200,0.0,4.0,70,0.00,-RA,,0.00,0.0,WeatherDisplay:10.37,2013-07-05 07:50:00,
2013-07-05 03:00:00,71.8,61.5,29.74,SSW,198,0.0,6.0,70,0.00,-RA,,0.00,0.0,WeatherDisplay:10.37,2013-07-05 08:00:00,
2013-07-05 03:10:00,71.7,61.4,29.74,SSW,202,1.0,6.0,70,0.00,-RA,,0.00,0.0,WeatherDisplay:10.37,2013-07-05 08:10:00,
2013-07-05 03:20:00,71.5,61.2,29.73,SSW,200,0.0,4.0,70,0.00,-RA,,0.00,0.0,WeatherDisplay:10.37,2013-07-05 08:20:00,
2013-07-05 03:30:00,71.3,61.0,29.73,SSW,211,0.0,6.0,70,0.00,-RA,,0.00,0.0,WeatherDisplay:10.37,2013-07-05 08:30:00,
2013-07-05 03:40:00,71.2,61.3,29.73,SSW,204,0.0,5.0,71,0.00,-RA,,0.00,0.0,WeatherDisplay:10.37,2013-07-05 08:40:00,
2013-07-05 03:50:00,62.1,56.5,29.88,SSW,199,0.0,0.0,82,0.00,-RA,,0.00,0.0,WeatherDisplay:10.37,2013-07-05 08:50:00,
2013-07-05 04:00:00,71.0,61.5,29.73,South,180,0.0,5.0,72,0.00,-RA,,0.00,0.0,WeatherDisplay:10.37,2013-07-05 09:00:00,
2013-07-05 04:10:00,71.0,61.5,29.73,South,180,0.0,4.0,72,0.00,-RA,,0.00,0.0,WeatherDisplay:10.37,2013-07-05 09:10:00,
2013-07-05 04:20:00,71.0,61.1,29.73,SSW,193,0.0,7.0,71,0.00,-RA,,0.00,0.0,WeatherDisplay:10.37,2013-07-05 09:20:00,
2013-07-05 04:30:00,71.1,61.2,29.73,SSW,198,1.0,4.0,71,0.00,-RA,,0.00,0.0,WeatherDisplay:10.37,2013-07-05 09:30:00,
2013-07-05 04:40:00,71.2,61.3,29.73,South,187,0.0,5.0,71,0.00,-RA,,0.00,0.0,WeatherDisplay:10.37,2013-07-05 09:40:00,
2013-07-05 04:50:00,71.3,61.4,29.73,South,182,1.0,4.0,71,0.00,-RA,,0.00,0.0,WeatherDisplay:10.37,2013-07-05 09:50:00,
2013-07-05 05:00:00,71.3,61.4,29.73,South,182,1.0,4.0,71,0.00,-RA,,0.00,0.0,WeatherDisplay:10.37,2013-07-05 10:00:00,
2013-07-05 05:10:00,71.3,61.4,29.72,SSW,196,0.0,4.0,71,0.00,-RA,,0.00,0.0,WeatherDisplay:10.37,2013-07-05 10:10:00,
2013-07-05 05:20:00,71.2,61.3,29.72,South,190,2.0,4.0,71,0.00,-RA,,0.00,0.0,WeatherDisplay:10.37,2013-07-05 10:20:00,
2013-07-05 05:30:00,71.0,61.5,29.72,SSW,194,0.0,4.0,72,0.00,-RA,,0.00,5.0,WeatherDisplay:10.37,2013-07-05 10:30:00,
2013-07-05 05:40:00,70.9,61.4,29.71,South,180,0.0,3.0,72,0.00,-RA,,0.00,9.0,WeatherDisplay:10.37,2013-07-05 10:40:00,
2013-07-05 05:50:00,70.7,61.6,29.71,South,180,0.0,0.0,73,0.00,-RA,,0.00,21.0,WeatherDisplay:10.37,2013-07-05 10:50:00,
2013-07-05 06:00:00,70.5,61.4,29.71,South,180,0.0,3.0,73,0.00,-RA,,0.00,33.0,WeatherDisplay:10.37,2013-07-05 11:00:00,
2013-07-05 06:10:00,70.2,61.5,29.71,South,180,0.0,1.0,74,0.00,-RA,,0.00,44.0,WeatherDisplay:10.37,2013-07-05 11:10:00,
2013-07-05 06:20:00,69.9,61.6,29.71,South,180,0.0,4.0,75,0.00,-RA,,0.00,28.0,WeatherDisplay:10.37,2013-07-05 11:20:00,
2013-07-05 06:30:00,69.8,61.5,29.71,South,180,0.0,4.0,75,0.00,-RA,,0.00,46.0,WeatherDisplay:10.37,2013-07-05 11:30:00,
2013-07-05 06:40:00,69.7,61.4,29.72,South,184,0.0,5.0,75,0.00,-RA,,0.00,33.0,WeatherDisplay:10.37,2013-07-05 11:40:00,
2013-07-05 06:50:00,69.6,61.3,29.72,SSW,200,0.0,3.0,75,0.00,-RA,,0.00,47.0,WeatherDisplay:10.37,2013-07-05 11:50:00,
2013-07-05 07:00:00,69.5,61.2,29.71,SSW,202,0.0,3.0,75,0.00,-RA,,0.00,69.0,WeatherDisplay:10.37,2013-07-05 12:00:00,
2013-07-05 07:10:00,69.5,61.2,29.72,SSW,202,0.0,2.0,75,0.00,-RA,,0.00,60.0,WeatherDisplay:10.37,2013-07-05 12:10:00,
2013-07-05 07:20:00,69.4,61.5,29.72,SSW,202,0.0,2.0,76,0.00,-RA,,0.00,42.0,WeatherDisplay:10.37,2013-07-05 12:20:00,
2013-07-05 07:30:00,69.4,61.5,29.72,SSW,202,0.0,3.0,76,0.00,-RA,,0.00,47.0,WeatherDisplay:10.37,2013-07-05 12:30:00,
2013-07-05 07:40:00,69.3,61.8,29.73,South,180,0.0,3.0,77,0.00,-RA,,0.00,116.0,WeatherDisplay:10.37,2013-07-05 12:40:00,
2013-07-05 07:50:00,69.7,61.8,29.73,South,180,0.0,2.0,76,0.00,-RA,,0.00,104.0,WeatherDisplay:10.37,2013-07-05 12:50:00,
2013-07-05 08:00:00,69.9,62.0,29.73,South,182,1.0,3.0,76,0.00,-RA,,0.00,95.0,WeatherDisplay:10.37,2013-07-05 13:00:00,
2013-07-05 08:10:00,69.9,61.6,29.73,SSW,202,0.0,2.0,75,0.00,-RA,,0.00,98.0,WeatherDisplay:10.37,2013-07-05 13:10:00,
2013-07-05 08:20:00,70.1,62.2,29.73,South,180,0.0,5.0,76,0.00,-RA,,0.00,151.0,WeatherDisplay:10.37,2013-07-05 13:20:00,
2013-07-05 08:30:00,71.5,63.2,29.73,South,182,0.0,5.0,75,0.00,-RA,,0.00,116.0,WeatherDisplay:10.37,2013-07-05 13:30:00,
2013-07-05 08:40:00,71.6,63.6,29.73,SSW,193,0.0,4.0,76,0.00,-RA,,0.00,148.0,WeatherDisplay:10.37,2013-07-05 13:40:00,
2013-07-05 08:50:00,72.4,63.3,29.73,SSW,202,0.0,5.0,73,0.00,-RA,,0.00,125.0,WeatherDisplay:10.37,2013-07-05 13:50:00,
2013-07-05 09:00:00,72.7,63.5,29.73,SSW,210,0.0,5.0,73,0.00,-RA,,0.00,76.0,WeatherDisplay:10.37,2013-07-05 14:00:00,
2013-07-05 09:10:00,73.0,64.2,29.72,SSW,213,0.0,5.0,74,0.00,-RA,,0.00,109.0,WeatherDisplay:10.37,2013-07-05 14:10:00,
2013-07-05 09:20:00,73.9,64.3,29.72,SSW,202,0.0,1.0,72,0.00,-RA,,0.00,121.0,WeatherDisplay:10.37,2013-07-05 14:20:00,
2013-07-05 09:30:00,74.9,65.3,29.72,South,186,1.0,4.0,72,0.00,-RA,,0.00,269.0,WeatherDisplay:10.37,2013-07-05 14:30:00,
2013-07-05 09:40:00,74.8,64.8,29.72,SW,225,0.0,4.0,71,0.00,-RA,,0.00,228.0,WeatherDisplay:10.37,2013-07-05 14:40:00,
2013-07-05 09:50:00,75.4,65.7,29.72,SW,225,0.0,4.0,72,0.00,-RA,,0.00,243.0,WeatherDisplay:10.37,2013-07-05 14:50:00,
2013-07-05 10:00:00,76.5,66.4,29.71,SSW,204,0.0,3.0,71,0.00,-RA,,0.00,250.0,WeatherDisplay:10.37,2013-07-05 15:00:00,
2013-07-05 10:10:00,77.2,66.7,29.71,SSW,202,0.0,4.0,70,0.00,-RA,,0.00,153.0,WeatherDisplay:10.37,2013-07-05 15:10:00,
2013-07-05 10:20:00,77.6,66.6,29.71,South,182,0.0,5.0,69,0.00,-RA,,0.00,410.0,WeatherDisplay:10.37,2013-07-05 15:20:00,
2013-07-05 10:30:00,79.0,67.1,29.71,South,180,0.0,4.0,67,0.00,-RA,,0.00,898.0,WeatherDisplay:10.37,2013-07-05 15:30:00,
2013-07-05 10:40:00,78.0,66.2,29.72,South,180,1.0,4.0,67,0.00,-RA,,0.00,346.0,WeatherDisplay:10.37,2013-07-05 15:40:00,
2013-07-05 10:50:00,77.2,66.2,29.72,South,186,0.0,5.0,69,0.00,-RA,,0.00,298.0,WeatherDisplay:10.37,2013-07-05 15:50:00,
2013-07-05 11:00:00,77.1,67.4,29.73,SSW,202,1.0,4.0,72,0.00,-RA,,0.00,292.0,WeatherDisplay:10.37,2013-07-05 16:00:00,
2013-07-05 11:10:00,78.5,67.5,29.73,SSW,202,0.0,4.0,69,0.00,-RA,,0.00,728.0,WeatherDisplay:10.37,2013-07-05 16:10:00,
2013-07-05 11:20:00,80.3,67.5,29.72,SSW,202,0.0,3.0,65,0.00,-RA,,0.00,812.0,WeatherDisplay:10.37,2013-07-05 16:20:00,
2013-07-05 11:30:00,80.7,67.8,29.72,SSW,202,0.0,5.0,65,0.00,-RA,,0.00,1005.0,WeatherDisplay:10.37,2013-07-05 16:30:00,
2013-07-05 11:40:00,80.3,68.8,29.72,SSW,202,0.0,3.0,68,0.00,-RA,,0.00,896.0,WeatherDisplay:10.37,2013-07-05 16:40:00,
2013-07-05 11:50:00,80.7,68.7,29.72,SSW,202,0.0,4.0,67,0.00,-RA,,0.00,984.0,WeatherDisplay:10.37,2013-07-05 16:50:00,
2013-07-05 12:00:00,81.2,70.1,29.72,SSW,202,0.0,4.0,69,0.00,-RA,,0.00,995.0,WeatherDisplay:10.37,2013-07-05 17:00:00,
2013-07-05 12:10:00,80.7,68.7,29.72,SSW,202,0.0,4.0,67,0.00,-RA,,0.00,926.0,WeatherDisplay:10.37,2013-07-05 17:10:00,
2013-07-05 12:20:00,80.9,69.3,29.72,SSW,200,1.0,3.0,68,0.00,-RA,,0.00,387.0,WeatherDisplay:10.37,2013-07-05 17:20:00,
2013-07-05 12:30:00,81.7,69.7,29.72,South,191,0.0,3.0,67,0.00,-RA,,0.00,406.0,WeatherDisplay:10.37,2013-07-05 17:30:00,
2013-07-05 12:40:00,81.8,69.3,29.72,SSW,202,0.0,3.0,66,0.00,-RA,,0.00,1088.0,WeatherDisplay:10.37,2013-07-05 17:40:00,
2013-07-05 12:50:00,83.9,71.3,29.72,SSW,202,0.0,3.0,66,0.00,-RA,,0.00,1132.0,WeatherDisplay:10.37,2013-07-05 17:50:00,
2013-07-05 13:00:00,82.0,69.1,29.72,SSW,202,0.0,3.0,65,0.00,-RA,,0.00,327.0,WeatherDisplay:10.37,2013-07-05 18:00:00,
2013-07-05 13:10:00,82.6,69.2,29.72,SSW,202,0.0,2.0,64,0.00,-RA,,0.00,301.0,WeatherDisplay:10.37,2013-07-05 18:10:00,
2013-07-05 13:20:00,80.1,69.0,29.72,SSW,202,0.0,2.0,69,0.00,-RA,,0.00,165.0,WeatherDisplay:10.37,2013-07-05 18:20:00,
2013-07-05 13:30:00,79.0,68.8,29.72,SSW,202,0.0,2.0,71,0.00,-RA,,0.00,193.0,WeatherDisplay:10.37,2013-07-05 18:30:00,
2013-07-05 13:40:00,79.4,69.2,29.72,SSW,202,0.0,2.0,71,0.00,-RA,,0.00,195.0,WeatherDisplay:10.37,2013-07-05 18:40:00,
2013-07-05 13:50:00,82.0,70.8,29.72,SSW,196,0.0,3.0,69,0.00,-RA,,0.00,870.0,WeatherDisplay:10.37,2013-07-05 18:50:00,
2013-07-05 14:00:00,82.1,70.1,29.71,South,180,0.0,3.0,67,0.00,-RA,,0.00,865.0,WeatherDisplay:10.37,2013-07-05 19:00:00,
2013-07-05 14:10:00,83.8,70.8,29.71,SSW,195,0.0,4.0,65,0.00,-RA,,0.00,1053.0,WeatherDisplay:10.37,2013-07-05 19:10:00,
2013-07-05 14:20:00,85.0,70.5,29.72,SSW,202,1.0,6.0,62,0.00,-RA,,0.00,1071.0,WeatherDisplay:10.37,2013-07-05 19:20:00,
2013-07-05 14:30:00,83.6,69.2,29.71,SSW,198,2.0,7.0,62,0.00,-RA,,0.00,239.0,WeatherDisplay:10.37,2013-07-05 19:30:00,
2013-07-05 14:40:00,82.7,68.8,29.71,SSW,206,1.0,6.0,63,0.00,-RA,,0.00,220.0,WeatherDisplay:10.37,2013-07-05 19:40:00,
2013-07-05 14:50:00,82.7,68.8,29.71,SSW,202,1.0,5.0,63,0.00,-RA,,0.00,1014.0,WeatherDisplay:10.37,2013-07-05 19:50:00,
2013-07-05 15:00:00,81.8,69.8,29.71,West,265,1.0,4.0,67,0.00,-RA,,0.00,858.0,WeatherDisplay:10.37,2013-07-05 20:00:00,
2013-07-05 15:10:00,84.6,70.1,29.71,SSW,211,2.0,5.0,62,0.00,-RA,,0.00,898.0,WeatherDisplay:10.37,2013-07-05 20:10:00,
2013-07-05 15:20:00,82.9,69.5,29.70,SW,225,0.0,5.0,64,0.00,-RA,,0.00,225.0,WeatherDisplay:10.37,2013-07-05 20:20:00,
2013-07-05 15:40:00,82.7,68.4,29.70,SSW,202,0.0,5.0,62,0.00,-RA,,0.00,932.0,WeatherDisplay:10.37,2013-07-05 20:40:00,
2013-07-05 15:50:00,83.5,69.6,29.71,SSW,204,1.0,4.0,63,0.00,-RA,,0.00,360.0,WeatherDisplay:10.37,2013-07-05 20:50:00,
2013-07-05 16:00:00,84.0,70.0,29.70,SSW,207,1.0,6.0,63,0.00,-RA,,0.00,271.0,WeatherDisplay:10.37,2013-07-05 21:00:00,
2013-07-05 16:10:00,84.3,68.9,29.71,SW,219,1.0,5.0,60,0.00,-RA,,0.00,318.0,WeatherDisplay:10.37,2013-07-05 21:10:00,
2013-07-05 16:20:00,84.9,68.0,29.71,SSW,204,3.0,7.0,57,0.00,-RA,,0.00,190.0,WeatherDisplay:10.37,2013-07-05 21:20:00,
2013-07-05 16:30:00,83.9,67.5,29.71,SSW,206,1.0,4.0,58,0.00,-RA,,0.00,220.0,WeatherDisplay:10.37,2013-07-05 21:30:00,
2013-07-05 16:40:00,84.0,69.1,29.70,SSW,202,0.0,5.0,61,0.00,-RA,,0.00,742.0,WeatherDisplay:10.37,2013-07-05 21:40:00,
2013-07-05 16:50:00,83.7,68.8,29.71,SSW,204,1.0,4.0,61,0.00,-RA,,0.00,220.0,WeatherDisplay:10.37,2013-07-05 21:50:00,
2013-07-05 17:10:00,84.2,69.3,29.71,SSW,208,1.0,4.0,61,0.00,-RA,,0.00,174.0,WeatherDisplay:10.37,2013-07-05 22:10:00,
2013-07-05 17:20:00,83.8,68.9,29.71,SW,218,0.0,3.0,61,0.00,-RA,,0.00,654.0,WeatherDisplay:10.37,2013-07-05 22:20:00,
2013-07-05 17:30:00,83.6,70.1,29.71,SW,225,0.0,4.0,64,0.00,-RA,,0.00,111.0,WeatherDisplay:10.37,2013-07-05 22:30:00,
2013-07-05 17:40:00,82.0,69.1,29.71,SW,225,0.0,2.0,65,0.00,-RA,,0.00,142.0,WeatherDisplay:10.37,2013-07-05 22:40:00,
2013-07-05 17:50:00,83.2,69.8,29.71,SW,225,0.0,3.0,64,0.00,-RA,,0.00,186.0,WeatherDisplay:10.37,2013-07-05 22:50:00,
2013-07-05 18:00:00,82.1,68.7,29.71,SW,225,0.0,2.0,64,0.00,-RA,,0.00,139.0,WeatherDisplay:10.37,2013-07-05 23:00:00,
2013-07-05 18:10:00,81.1,69.5,29.71,SW,225,0.0,1.0,68,0.00,-RA,,0.00,229.0,WeatherDisplay:10.37,2013-07-05 23:10:00,
2013-07-05 18:20:00,81.2,69.6,29.71,SW,225,0.0,1.0,68,0.00,-RA,,0.00,109.0,WeatherDisplay:10.37,2013-07-05 23:20:00,
2013-07-05 18:30:00,80.5,68.5,29.71,SW,225,0.0,3.0,67,0.00,-RA,,0.00,132.0,WeatherDisplay:10.37,2013-07-05 23:30:00,
2013-07-05 18:40:00,82.3,69.4,29.71,SW,225,0.0,3.0,65,0.00,-RA,,0.00,276.0,WeatherDisplay:10.37,2013-07-05 23:40:00,
2013-07-05 18:50:00,82.7,68.8,29.71,SW,219,0.0,4.0,63,0.00,-RA,,0.00,234.0,WeatherDisplay:10.37,2013-07-05 23:50:00,
2013-07-05 19:00:00,81.4,69.4,29.72,SSW,202,0.0,3.0,67,0.00,-RA,,0.00,156.0,WeatherDisplay:10.37,2013-07-06 00:00:00,
2013-07-05 19:10:00,81.1,69.1,29.72,SSW,202,0.0,1.0,67,0.00,-RA,,0.00,128.0,WeatherDisplay:10.37,2013-07-06 00:10:00,
2013-07-05 19:20:00,80.6,69.5,29.72,SW,225,0.0,3.0,69,0.00,-RA,,0.00,127.0,WeatherDisplay:10.37,2013-07-06 00:20:00,
2013-07-05 19:30:00,80.8,69.2,29.72,SW,225,0.0,2.0,68,0.00,-RA,,0.00,90.0,WeatherDisplay:10.37,2013-07-06 00:30:00,
2013-07-05 19:40:00,80.0,69.3,29.72,SW,225,1.0,3.0,70,0.00,-RA,,0.00,104.0,WeatherDisplay:10.37,2013-07-06 00:40:00,
2013-07-05 19:50:00,80.5,69.8,29.72,SW,225,0.0,1.0,70,0.00,-RA,,0.00,151.0,WeatherDisplay:10.37,2013-07-06 00:50:00,
2013-07-05 20:00:00,80.7,68.7,29.72,SW,225,0.0,3.0,67,0.00,-RA,,0.00,85.0,WeatherDisplay:10.37,2013-07-06 01:00:00,
2013-07-05 20:10:00,80.3,68.8,29.72,SW,225,0.0,1.0,68,0.00,-RA,,0.00,46.0,WeatherDisplay:10.37,2013-07-06 01:10:00,
2013-07-05 20:20:00,80.3,68.8,29.72,SW,225,0.0,1.0,68,0.00,-RA,,0.00,35.0,WeatherDisplay:10.37,2013-07-06 01:20:00,
2013-07-05 20:30:00,80.1,68.6,29.72,SW,225,0.0,0.0,68,0.00,-RA,,0.00,28.0,WeatherDisplay:10.37,2013-07-06 01:30:00,
2013-07-05 20:40:00,79.7,68.2,29.72,SW,225,0.0,0.0,68,0.00,-RA,,0.00,23.0,WeatherDisplay:10.37,2013-07-06 01:40:00,
2013-07-05 20:50:00,79.2,68.1,29.72,SW,225,0.0,0.0,69,0.00,-RA,,0.00,18.0,WeatherDisplay:10.37,2013-07-06 01:50:00,
2013-07-05 21:00:00,78.6,68.8,29.72,SW,225,0.0,0.0,72,0.00,-RA,,0.00,11.0,WeatherDisplay:10.37,2013-07-06 02:00:00,
2013-07-05 21:10:00,77.6,68.3,29.72,SW,225,0.0,0.0,73,0.00,-RA,,0.00,5.0,WeatherDisplay:10.37,2013-07-06 02:10:00,
2013-07-05 21:20:00,76.7,67.8,29.72,SW,225,0.0,0.0,74,0.00,-RA,,0.00,0.0,WeatherDisplay:10.37,2013-07-06 02:20:00,
2013-07-05 21:40:00,74.6,66.1,29.73,SW,225,0.0,0.0,75,0.00,-RA,,0.00,0.0,WeatherDisplay:10.37,2013-07-06 02:40:00,
2013-07-05 21:50:00,73.8,66.9,29.74,SW,225,0.0,0.0,79,0.00,-RA,,0.00,0.0,WeatherDisplay:10.37,2013-07-06 02:50:00,
2013-07-05 22:00:00,72.9,66.4,29.74,SW,225,0.0,0.0,80,0.00,-RA,,0.00,0.0,WeatherDisplay:10.37,2013-07-06 03:00:00,
2013-07-05 22:10:00,72.1,65.6,29.74,SW,225,0.0,0.0,80,0.00,-RA,,0.00,0.0,WeatherDisplay:10.37,2013-07-06 03:10:00,
2013-07-05 22:20:00,71.3,64.8,29.75,SW,225,0.0,0.0,80,0.00,-RA,,0.00,0.0,WeatherDisplay:10.37,2013-07-06 03:20:00,
2013-07-05 22:30:00,70.7,64.9,29.75,SW,225,0.0,0.0,82,0.00,-RA,,0.00,0.0,WeatherDisplay:10.37,2013-07-06 03:30:00,
2013-07-05 22:47:00,69.5,63.8,29.76,SW,214,0.0,0.0,82,0.00,-RA,,0.00,0.0,WeatherDisplay:10.37,2013-07-06 03:47:00,
2013-07-05 22:52:00,69.3,63.9,29.78,SW,214,0.0,0.0,83,0.00,-RA,,0.00,0.0,WeatherDisplay:10.37,2013-07-06 03:52:00,
2013-07-05 22:57:00,69.0,63.6,29.78,SW,214,0.0,0.0,83,0.00,-RA,,0.00,0.0,WeatherDisplay:10.37,2013-07-06 03:57:00,
2013-07-05 23:01:00,68.9,63.9,29.78,SW,214,0.0,0.0,84,0.00,-RA,,0.00,0.0,WeatherDisplay:10.37,2013-07-06 04:01:00,
2013-07-05 23:06:00,68.5,63.5,29.77,SW,214,0.0,0.0,84,0.00,-RA,,0.00,0.0,WeatherDisplay:10.37,2013-07-06 04:06:00,
2013-07-05 23:11:00,68.3,62.9,29.78,SW,214,0.0,0.0,83,0.00,-RA,,0.00,0.0,WeatherDisplay:10.37,2013-07-06 04:11:00,
2013-07-05 23:16:00,68.0,62.6,29.78,SW,214,0.0,0.0,83,0.00,-RA,,0.00,0.0,WeatherDisplay:10.37,2013-07-06 04:16:00,
2013-07-05 23:21:00,67.8,62.4,29.78,SW,214,0.0,0.0,83,0.00,-RA,,0.00,0.0,WeatherDisplay:10.37,2013-07-06 04:21:00,
2013-07-05 23:26:00,67.6,62.6,29.78,SW,214,0.0,0.0,84,0.00,-RA,,0.00,0.0,WeatherDisplay:10.37,2013-07-06 04:26:00,
2013-07-05 23:31:00,67.4,62.1,29.78,SW,214,0.0,0.0,83,0.00,-RA,,0.00,0.0,WeatherDisplay:10.37,2013-07-06 04:31:00,
2013-07-05 23:36:00,67.1,62.1,29.79,SW,214,0.0,0.0,84,0.00,-RA,,0.00,0.0,WeatherDisplay:10.37,2013-07-06 04:36:00,
2013-07-05 23:41:00,66.9,61.9,29.79,SW,214,0.0,0.0,84,0.00,-RA,,0.00,0.0,WeatherDisplay:10.37,2013-07-06 04:41:00,
2013-07-05 23:46:00,66.7,61.7,29.79,SW,214,0.0,0.0,84,0.00,-RA,,0.00,0.0,WeatherDisplay:10.37,2013-07-06 04:46:00,
2013-07-05 23:51:00,66.5,61.5,29.79,SW,214,0.0,0.0,84,0.00,-RA,,0.00,0.0,WeatherDisplay:10.37,2013-07-06 04:51:00,
2013-07-05 23:56:00,66.3,61.3,29.80,SW,214,0.0,0.0,84,0.00,-RA,,0.00,0.0,WeatherDisplay:10.37,2013-07-06 04:56:00,